sensor_id;sensor_type;location;lat;lon;timestamp;pressure;altitude;pressure_sealevel;temperature;humidity
28448;BME280;15675;52.870;-1.416;2023-02-25T00:01:47;101149.91;;;4.73;100.00
28448;BME280;15675;52.870;-1.416;2023-02-25T00:04:13;101144.31;;;4.85;100.00
28448;BME280;15675;52.870;-1.416;2023-02-25T00:06:38;101161.13;;;4.75;100.00
28448;BME280;15675;52.870;-1.416;2023-02-25T00:09:04;101153.88;;;4.89;100.00
28448;BME280;15675;52.870;-1.416;2023-02-25T00:11:30;101149.63;;;4.91;100.00
28448;BME280;15675;52.870;-1.416;2023-02-25T00:13:56;101141.41;;;4.76;100.00
28448;BME280;15675;52.870;-1.416;2023-02-25T00:16:22;101144.84;;;4.51;100.00
28448;BME280;15675;52.870;-1.416;2023-02-25T00:18:53;101144.16;;;4.80;100.00
28448;BME280;15675;52.870;-1.416;2023-02-25T00:21:19;101137.19;;;4.78;100.00
28448;BME280;15675;52.870;-1.416;2023-02-25T00:23:46;101140.78;;;5.09;100.00
28448;BME280;15675;52.870;-1.416;2023-02-25T00:26:13;101139.69;;;4.75;100.00
28448;BME280;15675;52.870;-1.416;2023-02-25T00:28:39;101141.59;;;4.80;100.00
28448;BME280;15675;52.870;-1.416;2023-02-25T00:31:06;101143.34;;;4.83;100.00
28448;BME280;15675;52.870;-1.416;2023-02-25T00:33:32;101137.50;;;4.87;100.00
28448;BME280;15675;52.870;-1.416;2023-02-25T00:35:58;101142.44;;;5.07;100.00
28448;BME280;15675;52.870;-1.416;2023-02-25T00:38:23;101144.97;;;5.05;100.00
28448;BME280;15675;52.870;-1.416;2023-02-25T00:40:49;101141.25;;;4.71;100.00
28448;BME280;15675;52.870;-1.416;2023-02-25T00:43:14;101147.50;;;4.54;100.00
28448;BME280;15675;52.870;-1.416;2023-02-25T00:45:40;101150.78;;;4.74;100.00
28448;BME280;15675;52.870;-1.416;2023-02-25T00:48:06;101146.31;;;4.44;100.00
28448;BME280;15675;52.870;-1.416;2023-02-25T00:50:32;101148.31;;;4.53;100.00
28448;BME280;15675;52.870;-1.416;2023-02-25T00:52:57;101146.16;;;4.63;100.00
28448;BME280;15675;52.870;-1.416;2023-02-25T00:55:23;101151.94;;;4.58;100.00
28448;BME280;15675;52.870;-1.416;2023-02-25T00:57:48;101156.47;;;4.65;100.00
28448;BME280;15675;52.870;-1.416;2023-02-25T01:00:14;101159.16;;;4.68;100.00
28448;BME280;15675;52.870;-1.416;2023-02-25T01:02:43;101154.88;;;4.69;100.00
28448;BME280;15675;52.870;-1.416;2023-02-25T01:05:13;101152.03;;;4.61;100.00
28448;BME280;15675;52.870;-1.416;2023-02-25T01:07:39;101152.78;;;4.82;100.00
28448;BME280;15675;52.870;-1.416;2023-02-25T01:10:06;101147.22;;;4.70;100.00
28448;BME280;15675;52.870;-1.416;2023-02-25T01:12:32;101141.81;;;4.62;100.00
28448;BME280;15675;52.870;-1.416;2023-02-25T01:14:58;101148.72;;;4.39;100.00
28448;BME280;15675;52.870;-1.416;2023-02-25T01:17:23;101146.91;;;4.61;100.00
28448;BME280;15675;52.870;-1.416;2023-02-25T01:19:49;101147.69;;;4.84;100.00
28448;BME280;15675;52.870;-1.416;2023-02-25T01:22:14;101148.00;;;4.68;100.00
28448;BME280;15675;52.870;-1.416;2023-02-25T01:24:40;101147.34;;;4.73;100.00
28448;BME280;15675;52.870;-1.416;2023-02-25T01:27:05;101148.91;;;4.70;100.00
28448;BME280;15675;52.870;-1.416;2023-02-25T01:29:36;101146.09;;;4.38;100.00
28448;BME280;15675;52.870;-1.416;2023-02-25T01:32:06;101161.63;;;4.17;100.00
28448;BME280;15675;52.870;-1.416;2023-02-25T01:34:32;101158.09;;;4.39;100.00
28448;BME280;15675;52.870;-1.416;2023-02-25T01:36:58;101164.97;;;4.38;100.00
28448;BME280;15675;52.870;-1.416;2023-02-25T01:39:25;101150.69;;;4.46;100.00
28448;BME280;15675;52.870;-1.416;2023-02-25T01:41:53;101154.53;;;4.58;100.00
28448;BME280;15675;52.870;-1.416;2023-02-25T01:44:21;101144.13;;;4.55;100.00
28448;BME280;15675;52.870;-1.416;2023-02-25T01:46:49;101146.41;;;4.71;100.00
28448;BME280;15675;52.870;-1.416;2023-02-25T01:51:52;101150.19;;;4.57;100.00
28448;BME280;15675;52.870;-1.416;2023-02-25T01:54:19;101151.59;;;4.48;100.00
28448;BME280;15675;52.870;-1.416;2023-02-25T01:56:50;101146.56;;;4.52;100.00
28448;BME280;15675;52.870;-1.416;2023-02-25T01:59:19;101145.03;;;4.57;100.00
28448;BME280;15675;52.870;-1.416;2023-02-25T02:01:45;101146.91;;;4.61;100.00
28448;BME280;15675;52.870;-1.416;2023-02-25T02:04:12;101152.00;;;4.59;100.00
28448;BME280;15675;52.870;-1.416;2023-02-25T02:06:41;101147.16;;;4.69;100.00
28448;BME280;15675;52.870;-1.416;2023-02-25T02:09:11;101147.38;;;4.75;100.00
28448;BME280;15675;52.870;-1.416;2023-02-25T02:11:38;101158.09;;;4.63;100.00
28448;BME280;15675;52.870;-1.416;2023-02-25T02:14:05;101156.50;;;4.41;100.00
28448;BME280;15675;52.870;-1.416;2023-02-25T02:16:56;101154.69;;;4.38;100.00
28448;BME280;15675;52.870;-1.416;2023-02-25T02:19:30;101165.66;;;4.34;100.00
28448;BME280;15675;52.870;-1.416;2023-02-25T02:36:09;101145.28;;;4.16;100.00
28448;BME280;15675;52.870;-1.416;2023-02-25T02:39:03;101152.44;;;4.23;100.00
28448;BME280;15675;52.870;-1.416;2023-02-25T02:41:34;101143.72;;;4.20;100.00
28448;BME280;15675;52.870;-1.416;2023-02-25T02:46:35;101154.88;;;4.44;100.00
28448;BME280;15675;52.870;-1.416;2023-02-25T02:49:25;101155.72;;;4.19;100.00
28448;BME280;15675;52.870;-1.416;2023-02-25T02:52:01;101145.78;;;4.06;100.00
28448;BME280;15675;52.870;-1.416;2023-02-25T02:54:31;101146.19;;;4.17;100.00
28448;BME280;15675;52.870;-1.416;2023-02-25T02:57:00;101154.78;;;4.17;100.00
28448;BME280;15675;52.870;-1.416;2023-02-25T02:59:30;101163.06;;;4.10;100.00
28448;BME280;15675;52.870;-1.416;2023-02-25T03:02:01;101164.72;;;4.08;100.00
28448;BME280;15675;52.870;-1.416;2023-02-25T03:04:31;101162.94;;;4.29;100.00
28448;BME280;15675;52.870;-1.416;2023-02-25T03:07:06;101163.09;;;4.34;100.00
28448;BME280;15675;52.870;-1.416;2023-02-25T03:09:41;101157.50;;;4.46;100.00
28448;BME280;15675;52.870;-1.416;2023-02-25T03:12:07;101153.97;;;4.42;100.00
28448;BME280;15675;52.870;-1.416;2023-02-25T03:14:35;101157.56;;;4.47;100.00
28448;BME280;15675;52.870;-1.416;2023-02-25T03:17:06;101160.53;;;4.34;100.00
28448;BME280;15675;52.870;-1.416;2023-02-25T03:20:05;101164.25;;;4.18;100.00
28448;BME280;15675;52.870;-1.416;2023-02-25T03:22:39;101171.63;;;4.33;100.00
28448;BME280;15675;52.870;-1.416;2023-02-25T03:25:25;101176.94;;;4.13;100.00
28448;BME280;15675;52.870;-1.416;2023-02-25T03:28:02;101173.72;;;4.43;100.00
28448;BME280;15675;52.870;-1.416;2023-02-25T03:30:48;101184.41;;;4.80;100.00
28448;BME280;15675;52.870;-1.416;2023-02-25T03:33:34;101174.75;;;4.48;100.00
28448;BME280;15675;52.870;-1.416;2023-02-25T03:36:07;101182.34;;;4.45;100.00
28448;BME280;15675;52.870;-1.416;2023-02-25T03:38:35;101184.97;;;4.71;100.00
28448;BME280;15675;52.870;-1.416;2023-02-25T03:41:02;101183.25;;;4.72;100.00
28448;BME280;15675;52.870;-1.416;2023-02-25T03:43:38;101181.84;;;4.80;100.00
28448;BME280;15675;52.870;-1.416;2023-02-25T03:46:06;101177.75;;;4.85;100.00
28448;BME280;15675;52.870;-1.416;2023-02-25T03:48:33;101191.47;;;4.86;100.00
28448;BME280;15675;52.870;-1.416;2023-02-25T03:51:01;101186.03;;;4.76;100.00
28448;BME280;15675;52.870;-1.416;2023-02-25T03:53:28;101186.69;;;4.46;100.00
28448;BME280;15675;52.870;-1.416;2023-02-25T03:55:56;101186.34;;;4.37;100.00
28448;BME280;15675;52.870;-1.416;2023-02-25T03:58:22;101183.63;;;4.57;100.00
28448;BME280;15675;52.870;-1.416;2023-02-25T04:00:51;101174.69;;;4.71;100.00
28448;BME280;15675;52.870;-1.416;2023-02-25T04:03:19;101189.66;;;4.59;100.00
28448;BME280;15675;52.870;-1.416;2023-02-25T04:05:44;101183.72;;;4.60;100.00
28448;BME280;15675;52.870;-1.416;2023-02-25T04:08:10;101186.63;;;4.69;100.00
28448;BME280;15675;52.870;-1.416;2023-02-25T04:10:46;101193.63;;;4.49;99.17
28448;BME280;15675;52.870;-1.416;2023-02-25T04:13:14;101191.53;;;4.63;100.00
28448;BME280;15675;52.870;-1.416;2023-02-25T04:15:40;101185.44;;;4.59;99.72
28448;BME280;15675;52.870;-1.416;2023-02-25T04:18:06;101196.72;;;4.64;98.82
28448;BME280;15675;52.870;-1.416;2023-02-25T04:20:32;101200.03;;;4.60;98.48
28448;BME280;15675;52.870;-1.416;2023-02-25T04:22:59;101203.84;;;4.23;99.93
28448;BME280;15675;52.870;-1.416;2023-02-25T04:25:25;101206.50;;;4.49;100.00
28448;BME280;15675;52.870;-1.416;2023-02-25T04:27:51;101205.28;;;4.63;100.00
28448;BME280;15675;52.870;-1.416;2023-02-25T04:30:18;101198.50;;;4.65;99.99
28448;BME280;15675;52.870;-1.416;2023-02-25T04:32:44;101204.34;;;4.61;99.98
28448;BME280;15675;52.870;-1.416;2023-02-25T04:35:09;101200.75;;;4.56;99.62
28448;BME280;15675;52.870;-1.416;2023-02-25T04:37:38;101193.56;;;4.72;100.00
28448;BME280;15675;52.870;-1.416;2023-02-25T04:40:05;101205.84;;;4.79;99.15
28448;BME280;15675;52.870;-1.416;2023-02-25T04:42:41;101204.19;;;4.81;98.77
28448;BME280;15675;52.870;-1.416;2023-02-25T04:45:08;101213.06;;;4.65;98.34
28448;BME280;15675;52.870;-1.416;2023-02-25T04:47:34;101205.69;;;4.76;98.84
28448;BME280;15675;52.870;-1.416;2023-02-25T04:49:59;101197.22;;;4.54;98.88
28448;BME280;15675;52.870;-1.416;2023-02-25T04:52:26;101204.03;;;4.76;99.03
28448;BME280;15675;52.870;-1.416;2023-02-25T04:54:51;101206.91;;;4.86;98.59
28448;BME280;15675;52.870;-1.416;2023-02-25T04:57:17;101208.56;;;4.83;98.45
28448;BME280;15675;52.870;-1.416;2023-02-25T04:59:42;101203.31;;;4.80;98.22
28448;BME280;15675;52.870;-1.416;2023-02-25T05:02:08;101204.13;;;4.79;97.63
28448;BME280;15675;52.870;-1.416;2023-02-25T05:04:37;101196.41;;;4.79;97.76
28448;BME280;15675;52.870;-1.416;2023-02-25T05:07:04;101193.44;;;4.69;97.55
28448;BME280;15675;52.870;-1.416;2023-02-25T05:09:29;101202.53;;;4.59;97.47
28448;BME280;15675;52.870;-1.416;2023-02-25T05:11:55;101195.31;;;4.48;99.50
28448;BME280;15675;52.870;-1.416;2023-02-25T05:14:20;101201.81;;;4.63;99.80
28448;BME280;15675;52.870;-1.416;2023-02-25T05:16:46;101210.47;;;4.41;100.00
28448;BME280;15675;52.870;-1.416;2023-02-25T05:19:17;101207.75;;;4.36;100.00
28448;BME280;15675;52.870;-1.416;2023-02-25T05:21:43;101214.81;;;4.42;100.00
28448;BME280;15675;52.870;-1.416;2023-02-25T05:24:10;101216.59;;;4.44;100.00
28448;BME280;15675;52.870;-1.416;2023-02-25T05:26:36;101208.00;;;4.44;100.00
28448;BME280;15675;52.870;-1.416;2023-02-25T05:29:02;101212.34;;;4.69;100.00
28448;BME280;15675;52.870;-1.416;2023-02-25T05:31:28;101204.25;;;5.08;99.47
28448;BME280;15675;52.870;-1.416;2023-02-25T05:33:53;101208.31;;;4.77;99.00
28448;BME280;15675;52.870;-1.416;2023-02-25T05:36:19;101210.63;;;4.70;99.06
28448;BME280;15675;52.870;-1.416;2023-02-25T05:38:45;101214.63;;;4.86;99.19
28448;BME280;15675;52.870;-1.416;2023-02-25T05:41:12;101213.53;;;5.03;98.33
28448;BME280;15675;52.870;-1.416;2023-02-25T05:43:38;101214.06;;;4.94;97.49
28448;BME280;15675;52.870;-1.416;2023-02-25T05:46:05;101215.16;;;5.01;96.93
28448;BME280;15675;52.870;-1.416;2023-02-25T05:48:36;101218.97;;;5.12;97.17
28448;BME280;15675;52.870;-1.416;2023-02-25T05:51:04;101219.44;;;5.00;96.29
28448;BME280;15675;52.870;-1.416;2023-02-25T05:53:30;101225.59;;;5.06;95.88
28448;BME280;15675;52.870;-1.416;2023-02-25T05:55:56;101227.69;;;5.16;94.97
28448;BME280;15675;52.870;-1.416;2023-02-25T05:58:22;101231.09;;;4.91;94.93
28448;BME280;15675;52.870;-1.416;2023-02-25T06:00:48;101235.53;;;4.95;95.06
28448;BME280;15675;52.870;-1.416;2023-02-25T06:03:14;101239.75;;;4.69;95.24
28448;BME280;15675;52.870;-1.416;2023-02-25T06:05:40;101237.88;;;4.64;95.47
28448;BME280;15675;52.870;-1.416;2023-02-25T06:08:07;101254.56;;;4.76;95.27
28448;BME280;15675;52.870;-1.416;2023-02-25T06:10:33;101259.06;;;4.81;95.04
28448;BME280;15675;52.870;-1.416;2023-02-25T06:13:04;101253.44;;;4.68;94.25
28448;BME280;15675;52.870;-1.416;2023-02-25T06:15:29;101258.78;;;4.27;95.14
28448;BME280;15675;52.870;-1.416;2023-02-25T06:17:55;101258.94;;;4.54;96.39
28448;BME280;15675;52.870;-1.416;2023-02-25T06:20:21;101258.66;;;4.46;96.49
28448;BME280;15675;52.870;-1.416;2023-02-25T06:22:52;101258.88;;;4.53;97.04
28448;BME280;15675;52.870;-1.416;2023-02-25T06:25:18;101249.84;;;4.40;96.93
28448;BME280;15675;52.870;-1.416;2023-02-25T06:27:44;101261.06;;;4.42;97.07
28448;BME280;15675;52.870;-1.416;2023-02-25T06:30:10;101261.41;;;4.51;96.37
28448;BME280;15675;52.870;-1.416;2023-02-25T06:32:36;101258.56;;;4.43;96.05
28448;BME280;15675;52.870;-1.416;2023-02-25T06:35:01;101261.66;;;4.59;96.42
28448;BME280;15675;52.870;-1.416;2023-02-25T06:37:27;101264.78;;;4.50;96.31
28448;BME280;15675;52.870;-1.416;2023-02-25T06:39:52;101265.38;;;4.43;96.30
28448;BME280;15675;52.870;-1.416;2023-02-25T06:42:18;101266.38;;;4.46;95.43
28448;BME280;15675;52.870;-1.416;2023-02-25T06:44:44;101266.31;;;4.45;95.37
28448;BME280;15675;52.870;-1.416;2023-02-25T06:47:09;101257.25;;;4.55;94.51
28448;BME280;15675;52.870;-1.416;2023-02-25T06:49:35;101264.44;;;4.63;94.33
28448;BME280;15675;52.870;-1.416;2023-02-25T06:52:00;101263.75;;;4.45;93.94
28448;BME280;15675;52.870;-1.416;2023-02-25T06:54:26;101264.50;;;4.65;93.24
28448;BME280;15675;52.870;-1.416;2023-02-25T06:56:52;101264.72;;;4.48;92.75
28448;BME280;15675;52.870;-1.416;2023-02-25T06:59:19;101284.00;;;4.37;93.35
28448;BME280;15675;52.870;-1.416;2023-02-25T07:01:45;101280.16;;;4.26;93.79
28448;BME280;15675;52.870;-1.416;2023-02-25T07:04:14;101282.81;;;4.74;94.02
28448;BME280;15675;52.870;-1.416;2023-02-25T07:06:40;101279.28;;;4.71;93.55
28448;BME280;15675;52.870;-1.416;2023-02-25T07:09:06;101278.06;;;4.85;93.52
28448;BME280;15675;52.870;-1.416;2023-02-25T07:11:32;101283.91;;;4.57;92.77
28448;BME280;15675;52.870;-1.416;2023-02-25T07:13:59;101288.03;;;5.00;92.77
28448;BME280;15675;52.870;-1.416;2023-02-25T07:16:26;101286.88;;;5.16;91.38
28448;BME280;15675;52.870;-1.416;2023-02-25T07:18:55;101297.75;;;5.09;89.47
28448;BME280;15675;52.870;-1.416;2023-02-25T07:21:21;101296.19;;;5.12;89.50
28448;BME280;15675;52.870;-1.416;2023-02-25T07:23:47;101298.97;;;4.94;88.32
28448;BME280;15675;52.870;-1.416;2023-02-25T07:26:14;101299.84;;;4.71;88.73
28448;BME280;15675;52.870;-1.416;2023-02-25T07:28:41;101307.13;;;4.82;89.08
28448;BME280;15675;52.870;-1.416;2023-02-25T07:31:12;101308.09;;;4.39;90.54
28448;BME280;15675;52.870;-1.416;2023-02-25T07:33:38;101297.91;;;4.65;91.29
28448;BME280;15675;52.870;-1.416;2023-02-25T07:36:05;101306.88;;;4.99;90.01
28448;BME280;15675;52.870;-1.416;2023-02-25T07:38:31;101311.47;;;4.61;90.54
28448;BME280;15675;52.870;-1.416;2023-02-25T07:41:02;101313.03;;;4.80;91.61
28448;BME280;15675;52.870;-1.416;2023-02-25T07:43:29;101325.94;;;4.81;91.99
28448;BME280;15675;52.870;-1.416;2023-02-25T07:45:56;101321.22;;;4.70;93.41
28448;BME280;15675;52.870;-1.416;2023-02-25T07:48:21;101341.09;;;4.51;94.56
28448;BME280;15675;52.870;-1.416;2023-02-25T07:50:47;101332.00;;;4.59;95.67
28448;BME280;15675;52.870;-1.416;2023-02-25T07:53:12;101328.41;;;4.78;95.15
28448;BME280;15675;52.870;-1.416;2023-02-25T07:55:41;101344.75;;;4.56;95.62
28448;BME280;15675;52.870;-1.416;2023-02-25T07:58:07;101337.53;;;4.47;97.01
28448;BME280;15675;52.870;-1.416;2023-02-25T08:00:33;101344.53;;;4.52;98.09
28448;BME280;15675;52.870;-1.416;2023-02-25T08:02:59;101344.66;;;4.77;98.61
28448;BME280;15675;52.870;-1.416;2023-02-25T08:05:25;101344.66;;;4.77;97.95
28448;BME280;15675;52.870;-1.416;2023-02-25T08:07:50;101354.50;;;4.65;98.84
28448;BME280;15675;52.870;-1.416;2023-02-25T08:10:16;101349.53;;;4.47;99.95
28448;BME280;15675;52.870;-1.416;2023-02-25T08:12:42;101367.19;;;4.60;99.93
28448;BME280;15675;52.870;-1.416;2023-02-25T08:15:08;101354.06;;;4.54;100.00
28448;BME280;15675;52.870;-1.416;2023-02-25T08:17:34;101353.28;;;4.55;100.00
28448;BME280;15675;52.870;-1.416;2023-02-25T08:19:59;101357.00;;;4.63;100.00
28448;BME280;15675;52.870;-1.416;2023-02-25T08:22:25;101374.47;;;4.49;100.00
28448;BME280;15675;52.870;-1.416;2023-02-25T08:24:50;101376.47;;;4.57;100.00
28448;BME280;15675;52.870;-1.416;2023-02-25T08:27:16;101371.19;;;4.99;100.00
28448;BME280;15675;52.870;-1.416;2023-02-25T08:29:41;101374.19;;;4.87;100.00
28448;BME280;15675;52.870;-1.416;2023-02-25T08:32:07;101372.03;;;4.75;100.00
28448;BME280;15675;52.870;-1.416;2023-02-25T08:34:32;101359.09;;;4.96;99.82
28448;BME280;15675;52.870;-1.416;2023-02-25T08:36:58;101372.31;;;4.83;99.29
28448;BME280;15675;52.870;-1.416;2023-02-25T08:39:24;101374.22;;;4.89;99.17
28448;BME280;15675;52.870;-1.416;2023-02-25T08:41:49;101370.72;;;5.09;98.81
28448;BME280;15675;52.870;-1.416;2023-02-25T08:44:15;101379.72;;;4.98;97.91
28448;BME280;15675;52.870;-1.416;2023-02-25T08:46:44;101384.50;;;5.11;97.04
28448;BME280;15675;52.870;-1.416;2023-02-25T08:49:10;101377.06;;;4.95;97.73
28448;BME280;15675;52.870;-1.416;2023-02-25T08:51:36;101371.81;;;5.16;97.52
28448;BME280;15675;52.870;-1.416;2023-02-25T08:54:09;101366.13;;;5.00;98.05
28448;BME280;15675;52.870;-1.416;2023-02-25T08:56:35;101382.31;;;5.22;97.76
28448;BME280;15675;52.870;-1.416;2023-02-25T08:59:02;101370.97;;;5.41;97.00
28448;BME280;15675;52.870;-1.416;2023-02-25T09:01:28;101369.81;;;5.33;97.50
28448;BME280;15675;52.870;-1.416;2023-02-25T09:04:30;101370.91;;;5.40;96.70
28448;BME280;15675;52.870;-1.416;2023-02-25T09:06:55;101380.81;;;5.27;97.68
28448;BME280;15675;52.870;-1.416;2023-02-25T09:09:23;101377.94;;;5.19;98.64
28448;BME280;15675;52.870;-1.416;2023-02-25T09:11:49;101392.47;;;5.42;98.38
28448;BME280;15675;52.870;-1.416;2023-02-25T09:14:14;101388.22;;;5.19;100.00
28448;BME280;15675;52.870;-1.416;2023-02-25T09:16:40;101378.94;;;5.47;99.89
28448;BME280;15675;52.870;-1.416;2023-02-25T09:19:06;101389.00;;;5.17;98.83
28448;BME280;15675;52.870;-1.416;2023-02-25T09:21:32;101388.19;;;5.42;99.90
28448;BME280;15675;52.870;-1.416;2023-02-25T09:24:00;101395.56;;;5.09;99.51
28448;BME280;15675;52.870;-1.416;2023-02-25T09:26:25;101388.25;;;5.44;100.00
28448;BME280;15675;52.870;-1.416;2023-02-25T09:28:51;101392.78;;;5.27;100.00
28448;BME280;15675;52.870;-1.416;2023-02-25T09:31:17;101386.38;;;5.40;100.00
28448;BME280;15675;52.870;-1.416;2023-02-25T09:33:43;101386.38;;;5.40;99.47
28448;BME280;15675;52.870;-1.416;2023-02-25T09:36:15;101390.91;;;5.23;99.16
28448;BME280;15675;52.870;-1.416;2023-02-25T09:38:42;101388.75;;;5.33;98.34
28448;BME280;15675;52.870;-1.416;2023-02-25T09:46:28;101395.22;;;5.72;96.46
28448;BME280;15675;52.870;-1.416;2023-02-25T09:49:29;101406.81;;;6.09;96.17
28448;BME280;15675;52.870;-1.416;2023-02-25T09:51:59;101400.56;;;6.02;93.66
28448;BME280;15675;52.870;-1.416;2023-02-25T09:54:39;101403.84;;;5.98;93.78
28448;BME280;15675;52.870;-1.416;2023-02-25T09:57:10;101401.56;;;5.82;94.62
28448;BME280;15675;52.870;-1.416;2023-02-25T09:59:37;101409.59;;;5.41;94.74
28448;BME280;15675;52.870;-1.416;2023-02-25T10:07:52;101416.31;;;5.36;93.27
28448;BME280;15675;52.870;-1.416;2023-02-25T10:10:44;101405.94;;;5.59;93.69
28448;BME280;15675;52.870;-1.416;2023-02-25T10:13:23;101409.00;;;5.48;94.68
28448;BME280;15675;52.870;-1.416;2023-02-25T10:26:24;101435.13;;;5.83;95.10
28448;BME280;15675;52.870;-1.416;2023-02-25T10:29:04;101426.88;;;5.94;95.79
28448;BME280;15675;52.870;-1.416;2023-02-25T10:31:30;101442.72;;;5.55;95.50
28448;BME280;15675;52.870;-1.416;2023-02-25T10:33:59;101433.81;;;5.70;95.69
28448;BME280;15675;52.870;-1.416;2023-02-25T10:36:30;101441.66;;;5.49;94.79
28448;BME280;15675;52.870;-1.416;2023-02-25T10:38:58;101433.69;;;5.92;94.23
28448;BME280;15675;52.870;-1.416;2023-02-25T10:41:25;101429.03;;;5.81;92.88
28448;BME280;15675;52.870;-1.416;2023-02-25T10:43:54;101430.69;;;6.31;90.97
28448;BME280;15675;52.870;-1.416;2023-02-25T10:46:35;101428.50;;;6.16;90.21
28448;BME280;15675;52.870;-1.416;2023-02-25T10:49:24;101432.44;;;6.04;89.95
28448;BME280;15675;52.870;-1.416;2023-02-25T10:52:03;101425.72;;;6.37;89.40
28448;BME280;15675;52.870;-1.416;2023-02-25T10:54:34;101433.44;;;6.10;87.90
28448;BME280;15675;52.870;-1.416;2023-02-25T10:57:13;101428.53;;;5.92;87.22
28448;BME280;15675;52.870;-1.416;2023-02-25T10:59:40;101431.13;;;5.92;87.55
28448;BME280;15675;52.870;-1.416;2023-02-25T11:02:25;101428.38;;;6.38;88.76
28448;BME280;15675;52.870;-1.416;2023-02-25T11:04:53;101440.72;;;6.21;86.01
28448;BME280;15675;52.870;-1.416;2023-02-25T11:07:32;101440.28;;;6.08;85.85
28448;BME280;15675;52.870;-1.416;2023-02-25T11:12:45;101443.03;;;6.14;88.76
28448;BME280;15675;52.870;-1.416;2023-02-25T11:17:46;101439.84;;;6.48;87.12
28448;BME280;15675;52.870;-1.416;2023-02-25T11:20:24;101465.25;;;6.36;86.37
28448;BME280;15675;52.870;-1.416;2023-02-25T11:22:54;101467.66;;;6.05;88.81
28448;BME280;15675;52.870;-1.416;2023-02-25T11:25:41;101439.88;;;6.22;89.33
28448;BME280;15675;52.870;-1.416;2023-02-25T11:31:24;101447.72;;;6.00;88.64
28448;BME280;15675;52.870;-1.416;2023-02-25T11:33:56;101461.66;;;6.31;91.17
28448;BME280;15675;52.870;-1.416;2023-02-25T11:36:29;101464.13;;;5.78;91.09
28448;BME280;15675;52.870;-1.416;2023-02-25T11:39:13;101459.53;;;6.45;91.61
28448;BME280;15675;52.870;-1.416;2023-02-25T11:41:43;101460.09;;;6.36;90.25
28448;BME280;15675;52.870;-1.416;2023-02-25T11:44:18;101472.91;;;6.33;89.73
28448;BME280;15675;52.870;-1.416;2023-02-25T11:46:52;101458.31;;;6.33;89.16
28448;BME280;15675;52.870;-1.416;2023-02-25T11:49:27;101454.22;;;6.40;89.47
28448;BME280;15675;52.870;-1.416;2023-02-25T11:57:46;101468.50;;;5.80;85.52
28448;BME280;15675;52.870;-1.416;2023-02-25T12:05:48;101461.59;;;6.03;85.38
28448;BME280;15675;52.870;-1.416;2023-02-25T12:25:19;101445.84;;;6.20;85.97
28448;BME280;15675;52.870;-1.416;2023-02-25T12:28:14;101442.66;;;6.54;87.71
28448;BME280;15675;52.870;-1.416;2023-02-25T12:30:54;101455.72;;;6.33;87.22
28448;BME280;15675;52.870;-1.416;2023-02-25T12:33:53;101452.59;;;6.16;86.91
28448;BME280;15675;52.870;-1.416;2023-02-25T12:42:12;101457.22;;;6.27;93.09
28448;BME280;15675;52.870;-1.416;2023-02-25T12:44:49;101467.56;;;6.02;93.20
28448;BME280;15675;52.870;-1.416;2023-02-25T12:53:25;101441.00;;;6.31;95.32
28448;BME280;15675;52.870;-1.416;2023-02-25T13:07:01;101435.06;;;6.06;92.09
28448;BME280;15675;52.870;-1.416;2023-02-25T13:30:04;101405.19;;;6.96;74.82
28448;BME280;15675;52.870;-1.416;2023-02-25T13:36:07;101418.19;;;6.70;73.60
28448;BME280;15675;52.870;-1.416;2023-02-25T13:42:29;101410.88;;;6.84;73.41
28448;BME280;15675;52.870;-1.416;2023-02-25T13:48:13;101409.88;;;7.40;74.60
28448;BME280;15675;52.870;-1.416;2023-02-25T13:59:10;101463.69;;;6.41;77.13
28448;BME280;15675;52.870;-1.416;2023-02-25T14:02:06;101471.66;;;5.72;87.16
28448;BME280;15675;52.870;-1.416;2023-02-25T14:04:48;101471.91;;;5.55;92.35
28448;BME280;15675;52.870;-1.416;2023-02-25T14:07:49;101472.47;;;5.46;96.82
28448;BME280;15675;52.870;-1.416;2023-02-25T14:16:17;101458.16;;;5.79;100.00
28448;BME280;15675;52.870;-1.416;2023-02-25T14:21:39;101459.31;;;6.13;100.00
28448;BME280;15675;52.870;-1.416;2023-02-25T14:27:33;101466.38;;;6.18;99.81
28448;BME280;15675;52.870;-1.416;2023-02-25T14:32:59;101458.78;;;6.21;95.93
28448;BME280;15675;52.870;-1.416;2023-02-25T14:35:45;101474.97;;;6.17;94.23
28448;BME280;15675;52.870;-1.416;2023-02-25T14:42:22;101448.72;;;6.56;92.29
28448;BME280;15675;52.870;-1.416;2023-02-25T14:44:30;101461.59;;;6.84;91.35
28448;BME280;15675;52.870;-1.416;2023-02-25T14:47:01;101469.22;;;6.52;89.46
28448;BME280;15675;52.870;-1.416;2023-02-25T14:49:40;101465.47;;;6.69;90.18
28448;BME280;15675;52.870;-1.416;2023-02-25T14:52:13;101457.66;;;6.68;88.45
28448;BME280;15675;52.870;-1.416;2023-02-25T15:02:52;101459.53;;;7.01;83.86
28448;BME280;15675;52.870;-1.416;2023-02-25T15:05:42;101461.81;;;6.90;84.24
28448;BME280;15675;52.870;-1.416;2023-02-25T15:08:17;101470.88;;;7.06;83.01
28448;BME280;15675;52.870;-1.416;2023-02-25T15:11:25;101491.47;;;6.76;80.80
28448;BME280;15675;52.870;-1.416;2023-02-25T15:14:20;101496.19;;;6.62;79.63
28448;BME280;15675;52.870;-1.416;2023-02-25T15:22:55;101494.97;;;6.50;81.53
28448;BME280;15675;52.870;-1.416;2023-02-25T15:25:51;101493.69;;;6.65;82.38
28448;BME280;15675;52.870;-1.416;2023-02-25T15:28:37;101510.03;;;6.38;81.70
28448;BME280;15675;52.870;-1.416;2023-02-25T15:31:10;101503.09;;;6.63;82.16
28448;BME280;15675;52.870;-1.416;2023-02-25T15:33:53;101516.88;;;6.63;81.75
28448;BME280;15675;52.870;-1.416;2023-02-25T15:36:26;101504.59;;;6.56;80.59
28448;BME280;15675;52.870;-1.416;2023-02-25T15:39:03;101514.19;;;6.60;79.96
28448;BME280;15675;52.870;-1.416;2023-02-25T15:49:33;101519.72;;;6.19;77.01
28448;BME280;15675;52.870;-1.416;2023-02-25T15:52:01;101505.94;;;6.45;75.88
28448;BME280;15675;52.870;-1.416;2023-02-25T15:57:31;101508.25;;;6.37;74.78
28448;BME280;15675;52.870;-1.416;2023-02-25T15:59:55;101516.28;;;6.45;74.26
28448;BME280;15675;52.870;-1.416;2023-02-25T16:05:31;101505.31;;;6.52;73.55
28448;BME280;15675;52.870;-1.416;2023-02-25T16:07:57;101512.25;;;6.53;73.95